createdAt,value
2018-03-17T15:15:31.523Z,58.50
2018-03-17T15:17:59.162Z,58.40
2018-03-17T15:20:26.740Z,58.50
2018-03-17T15:22:54.312Z,58.60
2018-03-17T15:25:21.861Z,58.60
2018-03-17T15:27:49.463Z,58.60
2018-03-17T15:30:17.024Z,58.50
2018-03-17T15:32:44.690Z,58.70
2018-03-17T15:35:12.292Z,58.50
2018-03-17T15:37:39.826Z,58.40
2018-03-17T15:40:08.158Z,58.50
2018-03-17T15:42:35.702Z,58.40
2018-03-17T15:55:34.578Z,58.50
2018-03-17T15:58:02.118Z,58.90
2018-03-17T16:00:29.693Z,59.00
2018-03-17T16:02:57.256Z,58.80
2018-03-17T16:05:24.791Z,59.00
2018-03-17T16:07:52.358Z,58.70
2018-03-17T16:10:19.896Z,58.70
2018-03-17T16:12:47.485Z,58.90
2018-03-17T16:15:15.025Z,58.80
2018-03-17T16:17:42.640Z,58.50
2018-03-17T16:44:59.084Z,58.60
2018-03-17T17:22:12.130Z,58.60
2018-03-17T17:24:39.666Z,58.60
2018-03-17T17:27:07.257Z,58.30
2018-03-17T17:29:34.815Z,58.40
2018-03-17T17:32:02.374Z,58.30
2018-03-17T17:36:58.802Z,58.90
2018-03-17T17:39:26.506Z,59.50
2018-03-17T17:41:54.076Z,58.70
2018-03-17T17:44:21.683Z,57.90
2018-03-17T17:46:49.214Z,57.70
2018-03-17T17:49:17.548Z,57.70
2018-03-17T17:54:19.010Z,58.10
2018-03-17T17:56:46.558Z,58.00
2018-03-17T17:59:14.362Z,58.00
2018-03-17T18:01:42.611Z,57.70
2018-03-17T18:04:10.900Z,57.30
2018-03-17T18:06:38.471Z,57.30
2018-03-17T18:09:06.002Z,57.90
2018-03-17T18:11:33.555Z,57.30
2018-03-17T18:14:01.092Z,57.40
2018-03-17T18:16:28.649Z,57.40
2018-03-17T18:18:56.200Z,57.40
2018-03-17T18:21:24.528Z,57.40
2018-03-17T18:23:52.084Z,57.40
2018-03-17T18:26:21.150Z,57.40
2018-03-17T18:28:48.717Z,57.40
2018-03-17T18:31:16.298Z,57.40
2018-03-17T18:33:43.840Z,57.50
2018-03-17T18:36:11.399Z,57.30
2018-03-17T18:38:38.930Z,57.30
2018-03-17T18:41:07.251Z,57.30
2018-03-17T18:43:34.799Z,57.30
2018-03-17T18:46:02.352Z,57.30
2018-03-17T18:48:29.907Z,57.30
2018-03-17T18:50:57.448Z,57.30
2018-03-17T18:53:25.773Z,57.10
2018-03-17T18:55:53.353Z,57.10
2018-03-17T18:58:20.889Z,57.20
2018-03-17T19:00:48.559Z,57.20
2018-03-17T19:03:16.150Z,57.10
2018-03-17T19:05:44.453Z,57.20
2018-03-17T19:08:12.127Z,57.10
2018-03-17T19:10:40.015Z,57.10
2018-03-17T19:13:07.597Z,57.10
2018-03-17T19:15:35.134Z,57.00
2018-03-17T19:18:02.708Z,57.00
2018-03-17T19:20:30.252Z,56.90
2018-03-17T19:22:57.818Z,57.00
2018-03-17T19:25:25.395Z,57.00
2018-03-17T19:27:52.971Z,57.00
2018-03-17T19:30:20.532Z,56.90
2018-03-17T19:32:48.067Z,57.00
2018-03-17T19:35:15.638Z,56.90
2018-03-17T19:37:43.193Z,56.70
2018-03-17T19:40:11.583Z,56.90
2018-03-17T19:42:39.107Z,56.90
2018-03-17T19:45:06.673Z,56.80
2018-03-17T19:47:34.221Z,56.90
2018-03-17T19:50:01.788Z,56.80
2018-03-17T19:52:29.316Z,56.60
2018-03-17T19:54:56.887Z,56.70
2018-03-17T19:57:24.435Z,56.70
2018-03-17T19:59:52.012Z,56.70
2018-03-17T20:02:19.560Z,56.70
2018-03-17T20:04:47.095Z,56.70
2018-03-17T20:07:15.435Z,56.70
2018-03-17T20:09:42.984Z,56.70
2018-03-17T20:12:10.572Z,56.70
2018-03-17T20:14:38.090Z,56.50
2018-03-17T20:17:05.640Z,56.60
2018-03-17T20:19:33.232Z,56.70
2018-03-17T20:22:00.773Z,56.60
2018-03-17T20:24:28.359Z,56.60
2018-03-17T20:26:55.942Z,56.60
2018-03-17T20:29:24.267Z,56.60
2018-03-17T20:31:51.845Z,56.60
2018-03-17T20:34:19.422Z,56.40
2018-03-17T20:36:46.992Z,56.50
2018-03-17T20:39:14.542Z,56.60
2018-03-17T20:41:42.120Z,56.60
2018-03-17T20:44:10.505Z,56.50
2018-03-17T20:46:38.805Z,56.50
2018-03-17T20:49:06.346Z,56.40
2018-03-17T20:51:34.731Z,56.40
2018-03-17T20:54:03.088Z,56.40
2018-03-17T20:56:30.673Z,56.40
2018-03-17T20:58:58.978Z,56.50
2018-03-17T21:01:26.514Z,56.50
2018-03-17T21:03:54.061Z,56.40
2018-03-17T21:06:21.604Z,56.30
2018-03-17T21:08:49.939Z,56.40
2018-03-17T21:11:17.503Z,56.40
2018-03-17T21:13:45.034Z,56.40
2018-03-17T21:16:12.597Z,56.40
2018-03-17T21:18:40.941Z,56.30
2018-03-17T21:21:08.497Z,56.30
2018-03-17T21:23:36.025Z,55.80
2018-03-17T21:26:03.740Z,56.20
2018-03-17T21:28:31.289Z,56.30
2018-03-17T21:30:59.590Z,56.30
2018-03-17T21:33:27.408Z,56.30
2018-03-17T21:35:54.978Z,56.30
2018-03-17T21:38:22.502Z,56.30
2018-03-17T21:40:50.051Z,56.30
2018-03-17T21:43:17.584Z,56.30
2018-03-17T21:45:45.133Z,56.30
2018-03-17T21:48:13.453Z,56.20
2018-03-17T21:50:40.988Z,56.20
2018-03-17T21:53:09.733Z,56.20
2018-03-17T21:55:37.357Z,56.20
2018-03-17T21:58:04.895Z,56.20
2018-03-17T22:00:32.448Z,56.20
2018-03-17T22:02:59.985Z,56.20
2018-03-17T22:05:28.290Z,56.20
2018-03-17T22:07:55.860Z,56.20
2018-03-17T22:10:23.436Z,56.20
2018-03-17T22:12:50.950Z,56.20
2018-03-17T22:15:19.266Z,56.20
2018-03-17T22:17:46.812Z,56.30
2018-03-17T22:20:14.375Z,55.90
2018-03-17T22:22:42.676Z,56.10
2018-03-17T22:25:10.216Z,56.10
2018-03-17T22:27:37.780Z,56.00
2018-03-17T22:30:05.339Z,56.10
2018-03-17T22:32:32.896Z,56.00
2018-03-17T22:35:01.239Z,55.80
2018-03-17T22:37:29.529Z,55.90
2018-03-17T22:39:57.218Z,55.80
2018-03-17T22:42:24.758Z,55.70
2018-03-17T22:44:52.289Z,55.80
2018-03-17T22:47:20.612Z,55.70
2018-03-17T22:49:48.163Z,55.60
2018-03-17T22:52:15.723Z,55.60
2018-03-17T22:54:43.541Z,55.50
2018-03-17T22:57:11.095Z,55.60
2018-03-17T22:59:38.645Z,55.60
2018-03-17T23:02:06.193Z,55.60
2018-03-17T23:04:34.009Z,55.50
2018-03-17T23:07:02.316Z,55.40
2018-03-17T23:09:29.858Z,55.30
2018-03-17T23:11:57.398Z,55.50
2018-03-17T23:14:26.721Z,55.40
2018-03-17T23:16:56.516Z,55.30
2018-03-17T23:19:24.090Z,55.40
2018-03-17T23:21:51.658Z,55.20
2018-03-17T23:24:19.919Z,55.30
2018-03-17T23:26:47.494Z,55.30
2018-03-17T23:29:15.038Z,55.20
2018-03-17T23:31:42.579Z,55.20
2018-03-17T23:34:10.912Z,55.10
2018-03-17T23:36:39.149Z,55.10
2018-03-17T23:39:06.736Z,55.30
2018-03-17T23:41:34.276Z,55.30
2018-03-17T23:44:01.805Z,55.10
2018-03-17T23:46:30.130Z,55.20
2018-03-17T23:48:57.672Z,55.20
2018-03-17T23:51:25.231Z,55.10
2018-03-17T23:53:52.754Z,55.20
2018-03-17T23:56:21.087Z,55.10
2018-03-17T23:58:48.621Z,55.10
